Dream Diva — 3EKW6 — position and weather

sailwx.info

Track history (hours):
 
Tides and Currents Weather Stations Pressure Air Temp Water Temp Dewpoint Dewpoint Depression Visibility Wind Speed Wind Dir Waves Ship Positions

Dream Diva

Last reported at 2015-Mar-29 06:29 UTC. Time now 2015-Mar-29 07:27 UTC.
Position N 34°07' W 119°13'.

Length 186 m; draft 8 m.

Type: Cargo ship. MMSI: 372856000.

Date/timePositionNaut miles runAvg speedWind from/ knotsBaromVisibWave heightAir tempDewpointWater temp
2015-Mar-29 06:29N 34°07' W 119°13'0 0.0
2015-Mar-29 05:32N 34°07' W 119°13'0 0.0
2015-Mar-29 04:32N 34°07' W 119°13'0 0.0
2015-Mar-29 03:26N 34°07' W 119°13'0 0.0
2015-Mar-29 02:32N 34°07' W 119°13'0 0.0
2015-Mar-29 01:32N 34°07' W 119°13'0 0.0
2015-Mar-29 00:26N 34°07' W 119°13'0 0.0
2015-Mar-28 23:23N 34°07' W 119°13'0 0.0
2015-Mar-28 22:05N 34°07' W 119°13'0 0.0
2015-Mar-28 21:32N 34°07' W 119°13'0 0.0
2015-Mar-28 20:32N 34°07' W 119°13'0 0.0
2015-Mar-28 19:32N 34°07' W 119°13'0 0.0
2015-Mar-28 18:32N 34°07' W 119°13'0 0.0
2015-Mar-28 17:32N 34°07' W 119°13'0 0.1
2015-Mar-28 16:32N 34°07' W 119°13'0 0.1
2015-Mar-28 15:32N 34°07' W 119°13'0 0.0
2015-Mar-28 14:32N 34°07' W 119°13'0 0.0
2015-Mar-28 13:29N 34°07' W 119°13'2 2.2
2015-Mar-28 12:33N 34°05' W 119°14'6 6.3
2015-Mar-28 11:33N 34°00' W 119°10'10 9.6
2015-Mar-28 10:33N 33°52' W 119°16'10 9.8
2015-Mar-28 09:33N 33°50' W 119°27'1010.3
2015-Mar-28 08:33N 33°47' W 119°39'1010.2
2015-Mar-28 07:33N 33°45' W 119°51'1110.5
2015-Mar-28 06:33N 33°42' W 120°03'10 9.8
2015-Mar-28 05:33N 33°40' W 120°15'10 9.8
2015-Mar-28 04:33N 33°37' W 120°26'1010.4
2015-Mar-28 03:33N 33°34' W 120°38'1110.8
2015-Mar-28 02:33N 33°32' W 120°51'1210.9
2015-Mar-28 01:26N 33°30' W 121°05'1111.5
2015-Mar-28 00:29N 33°31' W 121°18'1111.2
2015-Mar-27 23:28N 33°32' W 121°32'4912.4
2015-Mar-27 19:29N 33°37' W 122°31'32313.4
2015-Mar-26 19:22N 35°17' W 128°44'  
Track history (hours):
 
Tides and Currents Weather Stations Pressure Air Temp Water Temp Dewpoint Dewpoint Depression Visibility Wind Speed Wind Dir Waves Ship Positions

Dream Diva

Last reported at 2015-Mar-29 06:29 UTC. Time now 2015-Mar-29 07:27 UTC.
Position N 34°07' W 119°13'.

Length 186 m; draft 8 m.

Type: Cargo ship. MMSI: 372856000.

Date/timePositionNaut miles runAvg speedWind from/ knotsBaromVisibWave heightAir tempDewpointWater temp
2015-Mar-29 06:29N 34°07' W 119°13'0 0.0
2015-Mar-29 05:32N 34°07' W 119°13'0 0.0
2015-Mar-29 04:32N 34°07' W 119°13'0 0.0
2015-Mar-29 03:26N 34°07' W 119°13'0 0.0
2015-Mar-29 02:32N 34°07' W 119°13'0 0.0
2015-Mar-29 01:32N 34°07' W 119°13'0 0.0
2015-Mar-29 00:26N 34°07' W 119°13'0 0.0
2015-Mar-28 23:23N 34°07' W 119°13'0 0.0
2015-Mar-28 22:05N 34°07' W 119°13'0 0.0
2015-Mar-28 21:32N 34°07' W 119°13'0 0.0
2015-Mar-28 20:32N 34°07' W 119°13'0 0.0
2015-Mar-28 19:32N 34°07' W 119°13'0 0.0
2015-Mar-28 18:32N 34°07' W 119°13'0 0.0
2015-Mar-28 17:32N 34°07' W 119°13'0 0.1
2015-Mar-28 16:32N 34°07' W 119°13'0 0.1
2015-Mar-28 15:32N 34°07' W 119°13'0 0.0
2015-Mar-28 14:32N 34°07' W 119°13'0 0.0
2015-Mar-28 13:29N 34°07' W 119°13'2 2.2
2015-Mar-28 12:33N 34°05' W 119°14'6 6.3
2015-Mar-28 11:33N 34°00' W 119°10'10 9.6
2015-Mar-28 10:33N 33°52' W 119°16'10 9.8
2015-Mar-28 09:33N 33°50' W 119°27'1010.3
2015-Mar-28 08:33N 33°47' W 119°39'1010.2
2015-Mar-28 07:33N 33°45' W 119°51'1110.5
2015-Mar-28 06:33N 33°42' W 120°03'10 9.8
2015-Mar-28 05:33N 33°40' W 120°15'10 9.8
2015-Mar-28 04:33N 33°37' W 120°26'1010.4
2015-Mar-28 03:33N 33°34' W 120°38'1110.8
2015-Mar-28 02:33N 33°32' W 120°51'1210.9
2015-Mar-28 01:26N 33°30' W 121°05'1111.5
2015-Mar-28 00:29N 33°31' W 121°18'1111.2
2015-Mar-27 23:28N 33°32' W 121°32'4912.4
2015-Mar-27 19:29N 33°37' W 122°31'32313.4
2015-Mar-26 19:22N 35°17' W 128°44'  

Dump ship's entire track history